Pagina principale
METAR-TAF:

METAR-TAF

Aeroporti :

Brazza, Croazia

latitudine: 43-17-09N, longitudine: 016-40-47E, altezza: 541 m

METAR: mancante

Ora: 02:24 (00:24 UTC)

Previsione

Il bollettino è stato emesso 12 ore e 59 minuti fa, alle 11:25 UTC
Previsione valida dal 13 alle 12 UTC al 14 alle 12 UTC
Vento 14 kt da nord/nord-est
Visibilità 10 km o più
Poco nuvoloso ad un'altezza di 6000 ft
Probabilità 40%
dal 13 alle 12 UTC al 13 alle 17 UTC
Vento 8 kt da nord-ovest
Evoluzione graduale
dal 14 alle 09 UTC al 14 alle 11 UTC
Vento 8 kt da nord-ovest

TAF: LDSB 131125Z 1312/1412 03014KT 9999 FEW060 TX25/1313Z TN15/1403Z PROB40 1312/1317 32008KT BECMG 1409/1411 32008KT

Osservazioni e previsioni meteorologiche di più di 4000 aeroporti (messaggi METAR e TAF).

Le stazioni disponibili sono rappresentate dai dischi gialli e rossi sulla carta.

Puntare il mouse per vedere il nome della stazione.

Clicca sopra per visualizzare le osservazioni e previsioni meteorologiche.

Per cambiare la mappa : fare clic sui pulsanti verdi con una croce nera per ingrandire, il pulsante verde con un trattino per diminuire, o sulla freccia verde per le mappe adiacenti.


METAR-TAF: